CheckWX is a tool to help pilots better visualize weather data.  It is not intended as a substitute for an official pre-flight weather briefing.

02:15:08 UTC

KLAR TAF
Laramie Regional Airport
Laramie, Wyoming, USA
KLAR 222320Z 2300/2324 16014KT P6SM OVC025 FM230100 13008KT P6SM VCSH SCT020 BKN050 FM230300 17007KT P6SM SKC FM231700 34008KT P6SM SCT250

Apr-23@
00:00 UTC

Apr-23 @ 00:00 UTC

Apr-23@
01:00 UTC

Apr-23 @ 01:00 UTC

KLAR 222320Z 2300/2324 16014KT P6SM OVC025

Expired

Wind
  • 160° at 14 KTS
Cloud Levels
  • Overcast at 2,500' AGL

Apr-23@
01:00 UTC

Apr-23 @ 01:00 UTC

Apr-23@
03:00 UTC

Apr-23 @ 03:00 UTC

FM230100 13008KT P6SM VCSH SCT020 BKN050

From

From Standard forecast or significant change

Wind
  • 130° at 8 KTS
Cloud Levels
  • Scattered at 2,000' AGL
  • Broken at 5,000' AGL

Apr-23@
03:00 UTC

Apr-23 @ 03:00 UTC

Apr-23@
17:00 UTC

Apr-23 @ 17:00 UTC

FM230300 17007KT P6SM SKC

From

From Standard forecast or significant change

Wind
  • 170° at 7 KTS
Cloud Levels
  • Clear skies

Apr-23@
17:00 UTC

Apr-23 @ 17:00 UTC

Apr-24@
00:00 UTC

Apr-24 @ 00:00 UTC

FM231700 34008KT P6SM SCT250

From

From Standard forecast or significant change

Wind
  • 340° at 8 KTS
Cloud Levels
  • Scattered at 25,000' AGL